Time;durP1;ratioP1;P1;durP2;ratioP2;P2;SDS_P1;SDS_P2;PMS_P1;PMS_P2;Temp;Humidity;BMP_temperature;BMP_pressure;BME280_temperature;BME280_humidity;BME280_pressure;Samples;Min_cycle;Max_cycle;Signal;HPM_P1;HPM_P2
2023/12/21 08:08:15;;;;;;;3.07;2.87;;;5.50;99.90;;;;;;5114479;27;20513;-65
2023/12/21 08:10:44;;;;;;;2.97;2.77;;;5.60;99.90;;;;;;5107082;28;20283;-65
2023/12/21 08:13:13;;;;;;;4.93;4.43;;;5.50;99.90;;;;;;5106420;28;20188;-65
2023/12/21 08:15:42;;;;;;;6.47;4.07;;;5.60;99.90;;;;;;5106714;28;20192;-65
2023/12/21 08:18:13;;;;;;;7.40;3.40;;;5.60;99.90;;;;;;5106615;28;20290;-66
2023/12/21 08:20:47;;;;;;;10.60;3.77;;;5.60;99.90;;;;;;5110044;28;20196;-64
2023/12/21 08:23:17;;;;;;;4.70;4.17;;;5.50;99.90;;;;;;5121004;27;20214;-65
2023/12/21 08:25:46;;;;;;;3.47;3.27;;;5.60;99.90;;;;;;5127048;27;20621;-63
2023/12/21 08:28:15;;;;;;;3.80;3.50;;;5.70;99.90;;;;;;5124343;28;20230;-65
2023/12/21 08:30:45;;;;;;;3.30;3.10;;;5.60;99.90;;;;;;5116352;28;20281;-64
2023/12/21 08:33:13;;;;;;;3.20;3.00;;;5.50;99.90;;;;;;5126737;27;20187;-63
2023/12/21 08:35:43;;;;;;;3.70;3.40;;;5.50;99.90;;;;;;5126763;27;20199;-64
2023/12/21 08:38:12;;;;;;;4.17;3.67;;;5.60;99.90;;;;;;5126637;27;20259;-65
2023/12/21 08:40:42;;;;;;;4.07;3.77;;;5.40;99.90;;;;;;5126510;27;20197;-64
2023/12/21 08:43:11;;;;;;;4.20;3.90;;;5.50;99.90;;;;;;5126222;27;20207;-64
2023/12/21 08:45:43;;;;;;;4.87;4.47;;;5.50;99.90;;;;;;5126584;27;20192;-64
2023/12/21 08:48:22;;;;;;;4.40;4.00;;;5.50;99.90;;;;;;5125262;28;20233;-64
2023/12/21 08:50:58;;;;;;;4.47;4.07;;;5.50;99.90;;;;;;5126380;27;20286;-65
2023/12/21 08:53:39;;;;;;;3.63;3.33;;;5.50;99.90;;;;;;5126772;27;20205;-65
2023/12/21 08:56:11;;;;;;;4.87;4.37;;;5.50;99.90;;;;;;5126277;27;20281;-65
2023/12/21 08:58:40;;;;;;;6.43;4.03;;;5.40;99.90;;;;;;5125578;27;20196;-65
2023/12/21 09:01:13;;;;;;;4.73;4.27;;;5.40;99.90;;;;;;5126417;27;20191;-64
2023/12/21 09:03:43;;;;;;;4.87;4.17;;;5.40;99.90;;;;;;5126400;27;20252;-65
2023/12/21 09:06:12;;;;;;;3.33;3.13;;;5.60;99.90;;;;;;5125984;27;20224;-63
2023/12/21 09:08:41;;;;;;;4.17;3.77;;;5.50;99.90;;;;;;5126134;27;20207;-65
2023/12/21 09:11:12;;;;;;;4.63;3.43;;;5.50;99.90;;;;;;5125604;27;20215;-64
2023/12/21 09:13:41;;;;;;;3.90;3.60;;;5.50;99.90;;;;;;5126169;27;20566;-64
2023/12/21 09:16:09;;;;;;;10.23;7.67;;;5.50;99.90;;;;;;5123274;27;20215;-65
2023/12/21 09:18:38;;;;;;;4.57;4.17;;;5.30;99.90;;;;;;5110100;28;20196;-65
2023/12/21 09:21:07;;;;;;;4.63;4.23;;;5.30;99.90;;;;;;5112040;27;20214;-65
2023/12/21 09:23:35;;;;;;;12.43;8.57;;;5.40;99.90;;;;;;5112514;28;20210;-64
2023/12/21 09:26:04;;;;;;;4.87;4.37;;;5.60;99.90;;;;;;5111724;28;20192;-64
2023/12/21 09:28:34;;;;;;;4.30;3.87;;;5.40;99.90;;;;;;5109350;28;20227;-63
2023/12/21 09:31:03;;;;;;;4.37;4.07;;;5.30;99.90;;;;;;5104740;28;20193;-64
2023/12/21 09:33:34;;;;;;;4.27;3.87;;;5.20;99.90;;;;;;5102959;28;20212;-65
2023/12/21 09:36:02;;;;;;;3.97;3.57;;;5.30;99.90;;;;;;5096339;28;20756;-65
2023/12/21 09:38:31;;;;;;;4.70;3.90;;;5.30;99.90;;;;;;5091350;28;20192;-65
2023/12/21 09:41:00;;;;;;;3.27;2.83;;;5.30;99.90;;;;;;5095001;28;20736;-65
2023/12/21 09:43:31;;;;;;;3.80;3.50;;;5.20;99.90;;;;;;5097735;28;20196;-65
2023/12/21 09:46:02;;;;;;;3.93;3.53;;;5.20;99.90;;;;;;5093438;28;20198;-65
2023/12/21 09:48:31;;;;;;;3.90;3.53;;;5.20;99.90;;;;;;5105173;28;20308;-65
2023/12/21 09:51:02;;;;;;;3.47;3.17;;;5.10;99.90;;;;;;5091605;28;20196;-65
2023/12/21 09:53:34;;;;;;;3.63;3.20;;;5.10;99.90;;;;;;5094389;28;20557;-66
2023/12/21 09:56:03;;;;;;;4.50;4.10;;;5.20;99.90;;;;;;5094653;28;20198;-65
2023/12/21 09:58:33;;;;;;;4.10;3.63;;;5.20;99.90;;;;;;5111204;28;20212;-65
2023/12/21 10:01:03;;;;;;;3.60;3.30;;;5.20;99.90;;;;;;5104693;28;20670;-66
2023/12/21 10:03:33;;;;;;;4.03;3.67;;;5.40;99.90;;;;;;5100218;28;20206;-66
2023/12/21 10:06:04;;;;;;;3.70;3.40;;;5.50;99.90;;;;;;5100309;28;20207;-65
2023/12/21 10:08:33;;;;;;;5.03;3.63;;;5.50;99.90;;;;;;5098361;28;20681;-66
2023/12/21 10:11:06;;;;;;;4.53;3.60;;;5.70;99.90;;;;;;5090466;28;20235;-65
2023/12/21 10:13:35;;;;;;;4.60;3.77;;;5.60;99.90;;;;;;5095580;28;20287;-66
2023/12/21 10:16:07;;;;;;;4.57;4.17;;;5.70;99.90;;;;;;5102188;28;20214;-65
2023/12/21 10:18:35;;;;;;;4.43;4.03;;;5.60;99.90;;;;;;5091428;28;20208;-64
2023/12/21 10:21:04;;;;;;;4.00;3.60;;;5.80;99.90;;;;;;5090463;28;20208;-64
2023/12/21 10:23:33;;;;;;;4.53;3.60;;;5.50;99.90;;;;;;5091258;28;20189;-65
2023/12/21 10:26:02;;;;;;;5.80;4.13;;;5.50;99.90;;;;;;5095963;28;20713;-64
2023/12/21 10:28:30;;;;;;;3.87;3.57;;;5.50;99.90;;;;;;5104434;28;20230;-64
2023/12/21 10:31:01;;;;;;;3.33;3.07;;;5.60;99.90;;;;;;5102291;28;20593;-65
2023/12/21 10:33:31;;;;;;;3.47;3.17;;;5.50;99.90;;;;;;5103378;28;20202;-65
2023/12/21 10:36:01;;;;;;;3.43;3.17;;;5.70;99.90;;;;;;5104349;28;20617;-66
2023/12/21 10:38:30;;;;;;;3.80;3.50;;;5.50;99.90;;;;;;5110289;28;20196;-65
2023/12/21 10:41:05;;;;;;;4.53;3.27;;;5.80;99.90;;;;;;5098809;28;20215;-62
2023/12/21 10:43:35;;;;;;;3.60;3.30;;;6.10;99.90;;;;;;5097104;28;20298;-65
2023/12/21 10:46:04;;;;;;;3.07;2.87;;;6.00;99.90;;;;;;5093567;28;20200;-66
2023/12/21 10:48:38;;;;;;;3.40;3.20;;;5.60;99.90;;;;;;5094583;28;20226;-65
2023/12/21 10:51:07;;;;;;;3.73;3.43;;;5.60;99.90;;;;;;5089846;28;20200;-64
2023/12/21 10:53:36;;;;;;;3.67;3.37;;;5.70;99.90;;;;;;5098891;28;20557;-66
2023/12/21 10:56:06;;;;;;;3.90;3.60;;;5.60;99.90;;;;;;5090596;28;20201;-66
2023/12/21 10:58:37;;;;;;;3.17;2.97;;;5.40;99.90;;;;;;5098922;28;20224;-65
2023/12/21 11:01:06;;;;;;;4.60;4.20;;;5.70;99.90;;;;;;5096954;28;20201;-66
2023/12/21 11:03:37;;;;;;;5.67;3.70;;;5.70;99.90;;;;;;5105764;28;20200;-66
2023/12/21 11:06:08;;;;;;;4.33;3.93;;;5.90;99.90;;;;;;5109452;28;20322;-66
2023/12/21 11:08:38;;;;;;;4.40;4.00;;;6.00;99.90;;;;;;5109905;28;20228;-65
2023/12/21 11:11:07;;;;;;;5.20;4.43;;;6.00;99.90;;;;;;5109857;28;20192;-66
2023/12/21 11:13:36;;;;;;;4.67;4.27;;;5.60;99.90;;;;;;5110009;28;20208;-64
2023/12/21 11:16:05;;;;;;;5.60;4.97;;;5.60;99.90;;;;;;5107899;28;20188;-67
2023/12/21 11:18:33;;;;;;;5.63;5.13;;;5.60;99.90;;;;;;5109865;28;20282;-66
2023/12/21 11:21:05;;;;;;;5.23;4.83;;;5.70;99.90;;;;;;5109747;28;20192;-64
2023/12/21 11:23:40;;;;;;;7.90;5.67;;;5.70;99.90;;;;;;5109487;28;20203;-65
2023/12/21 11:26:10;;;;;;;5.20;4.73;;;5.60;99.90;;;;;;5109312;28;20229;-65
2023/12/21 11:28:40;;;;;;;5.03;4.63;;;5.70;99.90;;;;;;5109238;28;20311;-65
2023/12/21 11:31:15;;;;;;;7.53;5.20;;;5.70;99.90;;;;;;5109464;28;20200;-65
2023/12/21 11:33:44;;;;;;;4.87;4.37;;;5.60;99.90;;;;;;5105244;28;20200;-65
2023/12/21 11:36:25;;;;;;;5.67;4.87;;;5.50;99.90;;;;;;5101847;28;20796;-64
2023/12/21 11:38:56;;;;;;;6.27;5.67;;;5.50;99.90;;;;;;5101778;28;20210;-65
2023/12/21 11:41:25;;;;;;;6.83;6.00;;;5.70;99.90;;;;;;5093731;28;20195;-65
2023/12/21 11:44:00;;;;;;;5.73;5.30;;;5.70;99.90;;;;;;5102653;28;20204;-65
2023/12/21 11:46:29;;;;;;;6.00;5.40;;;5.60;99.90;;;;;;5109296;28;20199;-65
2023/12/21 11:48:58;;;;;;;7.03;5.17;;;5.40;99.90;;;;;;5100533;28;20387;-65
2023/12/21 11:51:28;;;;;;;5.47;4.97;;;5.50;99.90;;;;;;5106060;28;20224;-65
2023/12/21 11:53:57;;;;;;;5.70;5.07;;;5.70;99.90;;;;;;5109600;28;20462;-65
2023/12/21 11:56:35;;;;;;;5.33;4.83;;;5.70;99.90;;;;;;5109209;28;20200;-66
2023/12/21 11:59:05;;;;;;;5.10;4.60;;;5.70;99.90;;;;;;5109150;28;20552;-64
2023/12/21 12:01:35;;;;;;;5.63;5.13;;;5.60;99.90;;;;;;5102457;28;20204;-65
2023/12/21 12:04:06;;;;;;;4.93;4.50;;;5.60;99.90;;;;;;5094648;28;20890;-65
2023/12/21 12:06:38;;;;;;;5.03;4.63;;;5.60;99.90;;;;;;5088741;28;20227;-66
2023/12/21 12:09:07;;;;;;;4.63;4.23;;;5.60;99.90;;;;;;5088738;28;20571;-65
2023/12/21 12:11:35;;;;;;;4.57;4.20;;;5.60;99.90;;;;;;5100807;28;20271;-66
2023/12/21 12:14:04;;;;;;;5.17;4.67;;;5.60;99.90;;;;;;5106028;28;20204;-65
2023/12/21 12:16:33;;;;;;;4.43;4.13;;;5.70;99.90;;;;;;5088557;28;20202;-64
2023/12/21 12:19:02;;;;;;;4.03;3.60;;;5.70;99.90;;;;;;5088469;28;20570;-64
2023/12/21 12:21:31;;;;;;;3.80;3.60;;;5.80;99.90;;;;;;5088607;28;20742;-66
2023/12/21 12:24:02;;;;;;;4.10;3.80;;;5.80;99.90;;;;;;5088642;28;20188;-65
2023/12/21 12:26:31;;;;;;;4.03;3.73;;;5.80;99.90;;;;;;5089008;28;20200;-65
2023/12/21 12:28:59;;;;;;;3.90;3.50;;;5.70;99.90;;;;;;5104169;28;20273;-66
2023/12/21 12:31:28;;;;;;;4.23;3.93;;;5.70;99.90;;;;;;5109345;28;20214;-64
2023/12/21 12:33:57;;;;;;;5.10;3.83;;;5.80;99.90;;;;;;5108986;28;20191;-65
2023/12/21 12:36:26;;;;;;;4.80;3.90;;;6.00;99.90;;;;;;5108479;28;20200;-65
2023/12/21 12:38:56;;;;;;;4.30;3.67;;;6.10;99.90;;;;;;5108684;28;20300;-64
2023/12/21 12:41:26;;;;;;;3.83;3.43;;;6.10;99.90;;;;;;5108164;28;20199;-66
2023/12/21 12:43:55;;;;;;;5.33;4.10;;;6.10;99.90;;;;;;5108638;28;20303;-65
2023/12/21 12:46:26;;;;;;;4.80;4.30;;;5.90;99.90;;;;;;5108756;28;20193;-65
2023/12/21 12:48:55;;;;;;;4.40;4.00;;;6.00;99.90;;;;;;5108668;28;20323;-65
2023/12/21 12:51:24;;;;;;;4.37;3.97;;;5.90;99.90;;;;;;5108441;28;20203;-65
2023/12/21 12:53:55;;;;;;;4.17;3.77;;;6.10;99.90;;;;;;5110719;28;20195;-65
2023/12/21 12:56:25;;;;;;;4.40;3.50;;;6.10;99.90;;;;;;5112564;28;20195;-66
2023/12/21 12:58:56;;;;;;;4.20;3.80;;;6.10;99.90;;;;;;5112204;28;20210;-67
2023/12/21 13:01:27;;;;;;;4.60;3.90;;;6.20;99.90;;;;;;5112480;28;20566;-66
2023/12/21 13:03:57;;;;;;;4.37;4.00;;;6.30;99.90;;;;;;5112340;28;20278;-66
2023/12/21 13:06:25;;;;;;;5.13;4.00;;;6.20;99.90;;;;;;5112066;28;20247;-66
2023/12/21 13:08:54;;;;;;;4.27;3.97;;;6.20;99.90;;;;;;5112036;28;20220;-66
2023/12/21 13:11:23;;;;;;;6.23;4.00;;;6.30;99.90;;;;;;5112173;28;20189;-66
2023/12/21 13:13:53;;;;;;;4.30;3.83;;;6.20;99.90;;;;;;5112035;28;20192;-66
2023/12/21 13:16:22;;;;;;;6.00;4.27;;;6.10;99.90;;;;;;5112225;28;20311;-67
2023/12/21 13:18:51;;;;;;;4.77;4.00;;;6.10;99.90;;;;;;5112079;28;20745;-65
2023/12/21 13:21:19;;;;;;;4.30;3.80;;;6.20;99.90;;;;;;5111785;28;20283;-65
2023/12/21 13:23:47;;;;;;;4.10;3.70;;;6.30;99.90;;;;;;5111863;28;20195;-66
2023/12/21 13:26:16;;;;;;;4.60;4.20;;;6.30;99.90;;;;;;5111570;28;20211;-66
2023/12/21 13:28:45;;;;;;;4.17;3.73;;;6.40;99.90;;;;;;5111336;28;20196;-66
2023/12/21 13:31:15;;;;;;;4.40;4.00;;;6.50;99.90;;;;;;5111560;28;20191;-66
2023/12/21 13:33:43;;;;;;;8.17;3.30;;;6.50;99.90;;;;;;5111742;28;20210;-67
2023/12/21 13:36:13;;;;;;;4.97;3.70;;;6.50;99.90;;;;;;5111636;28;20610;-67
2023/12/21 13:38:41;;;;;;;3.40;3.10;;;6.50;99.90;;;;;;5111624;28;20210;-66
2023/12/21 13:41:10;;;;;;;3.40;3.10;;;6.60;99.90;;;;;;5103450;28;20205;-66
2023/12/21 13:43:41;;;;;;;3.60;3.30;;;6.60;99.90;;;;;;5091141;28;20400;-66
2023/12/21 13:46:11;;;;;;;4.13;3.53;;;6.70;99.90;;;;;;5091310;28;20729;-66
2023/12/21 13:48:41;;;;;;;4.60;3.70;;;6.70;99.90;;;;;;5091176;28;20242;-66
2023/12/21 13:51:10;;;;;;;4.37;3.87;;;6.70;99.90;;;;;;5095102;28;20228;-65
2023/12/21 13:53:39;;;;;;;4.43;4.00;;;6.70;99.90;;;;;;5111293;28;20246;-67
2023/12/21 13:56:09;;;;;;;4.03;3.63;;;6.90;99.90;;;;;;5108846;28;20291;-66
2023/12/21 13:58:37;;;;;;;3.77;3.27;;;6.80;99.90;;;;;;5101722;28;20207;-66
2023/12/21 14:01:07;;;;;;;4.13;3.83;;;6.90;99.90;;;;;;5093403;28;20207;-66
2023/12/21 14:03:35;;;;;;;3.93;3.47;;;6.90;99.90;;;;;;5107826;28;20641;-66
2023/12/21 14:06:06;;;;;;;4.20;3.80;;;7.00;99.90;;;;;;5110719;28;20215;-65
2023/12/21 14:08:35;;;;;;;4.07;3.70;;;6.90;99.90;;;;;;5096013;28;20205;-66
2023/12/21 14:11:03;;;;;;;5.43;4.07;;;6.90;99.90;;;;;;5109663;28;20233;-65
2023/12/21 14:13:32;;;;;;;4.27;3.87;;;7.00;99.90;;;;;;5108675;28;20193;-66
2023/12/21 14:16:01;;;;;;;4.20;3.70;;;7.00;99.90;;;;;;5110443;28;20223;-66
2023/12/21 14:18:30;;;;;;;3.90;3.20;;;7.20;99.90;;;;;;5110815;28;20308;-66
2023/12/21 14:20:59;;;;;;;4.87;4.27;;;7.20;99.90;;;;;;5110872;28;20188;-65
2023/12/21 14:23:29;;;;;;;4.47;3.73;;;7.30;99.90;;;;;;5110503;28;20203;-66
2023/12/21 14:25:57;;;;;;;4.33;3.93;;;7.40;99.90;;;;;;5110802;28;20196;-66
2023/12/21 14:28:26;;;;;;;3.70;3.40;;;7.40;99.90;;;;;;5110330;28;20218;-66
2023/12/21 14:30:56;;;;;;;3.57;3.27;;;7.40;99.90;;;;;;5110382;28;20240;-66
2023/12/21 14:33:25;;;;;;;23.50;14.40;;;7.50;99.90;;;;;;5110327;28;20192;-66
2023/12/21 14:35:54;;;;;;;3.83;3.47;;;7.50;99.90;;;;;;5110349;28;20205;-65
2023/12/21 14:38:22;;;;;;;3.60;3.30;;;7.50;99.90;;;;;;5109108;28;20196;-66
2023/12/21 14:40:52;;;;;;;3.30;3.03;;;7.50;99.90;;;;;;5110532;28;20543;-66
2023/12/21 14:43:22;;;;;;;3.60;3.30;;;7.50;99.90;;;;;;5110271;28;20737;-65
2023/12/21 14:45:51;;;;;;;4.07;3.23;;;7.60;99.90;;;;;;5110242;28;20274;-65
2023/12/21 14:48:21;;;;;;;3.67;2.90;;;7.40;99.90;;;;;;5110321;28;20203;-65
2023/12/21 14:50:53;;;;;;;4.33;4.03;;;7.50;99.90;;;;;;5110257;28;20281;-67
2023/12/21 14:53:21;;;;;;;9.23;4.07;;;7.50;99.90;;;;;;5110164;27;20242;-66
2023/12/21 14:55:50;;;;;;;4.07;3.67;;;7.60;99.90;;;;;;5110247;28;20188;-65
2023/12/21 14:58:20;;;;;;;4.03;3.63;;;7.70;99.90;;;;;;5109947;28;20197;-65
2023/12/21 15:00:48;;;;;;;3.67;3.37;;;7.70;99.90;;;;;;5109291;28;20258;-64
2023/12/21 15:03:17;;;;;;;4.03;2.83;;;7.80;99.90;;;;;;5094872;28;20208;-65
2023/12/21 15:05:46;;;;;;;3.80;3.43;;;7.80;99.90;;;;;;5089223;28;20286;-66
2023/12/21 15:08:15;;;;;;;6.17;4.30;;;7.80;99.90;;;;;;5089373;28;20229;-66
2023/12/21 15:10:43;;;;;;;4.40;4.00;;;7.90;99.90;;;;;;5089370;28;20212;-65
2023/12/21 15:13:13;;;;;;;4.67;3.87;;;7.80;99.90;;;;;;5091722;28;20200;-66
2023/12/21 15:15:44;;;;;;;3.87;3.27;;;7.70;99.90;;;;;;5102834;28;20208;-66
2023/12/21 15:18:13;;;;;;;3.50;3.20;;;7.80;99.90;;;;;;5108005;28;20549;-66
2023/12/21 15:20:42;;;;;;;3.13;2.93;;;7.80;99.90;;;;;;5109700;28;20251;-65
2023/12/21 15:23:11;;;;;;;3.57;3.37;;;7.80;99.90;;;;;;5108645;28;20645;-67
2023/12/21 15:25:41;;;;;;;4.10;3.70;;;7.90;99.90;;;;;;5108797;28;20205;-66
2023/12/21 15:28:09;;;;;;;3.30;3.00;;;8.00;99.90;;;;;;5108371;28;20185;-66
2023/12/21 15:30:38;;;;;;;3.43;3.20;;;8.00;99.90;;;;;;5107788;28;20613;-66
2023/12/21 15:33:11;;;;;;;3.03;2.73;;;8.00;99.90;;;;;;5109817;28;20196;-66
2023/12/21 15:35:40;;;;;;;3.17;2.87;;;8.00;99.90;;;;;;5088647;28;20209;-66
2023/12/21 15:38:08;;;;;;;3.27;2.97;;;8.00;99.90;;;;;;5096474;28;20202;-65
2023/12/21 15:40:37;;;;;;;3.20;2.97;;;8.00;99.90;;;;;;5103961;28;20194;-65
2023/12/21 15:43:06;;;;;;;2.87;2.67;;;8.10;99.90;;;;;;5100689;28;20259;-65
2023/12/21 15:45:34;;;;;;;2.90;2.70;;;8.00;99.90;;;;;;5093910;28;20222;-66
2023/12/21 15:48:03;;;;;;;3.87;3.57;;;8.00;99.90;;;;;;5088658;28;20297;-66
2023/12/21 15:50:33;;;;;;;3.80;3.50;;;8.00;99.90;;;;;;5088137;28;20263;-67
2023/12/21 15:53:02;;;;;;;4.10;3.37;;;8.10;99.90;;;;;;5088517;28;20209;-66
2023/12/21 15:55:32;;;;;;;3.80;3.30;;;8.20;99.90;;;;;;5088033;28;20290;-65
2023/12/21 15:58:07;;;;;;;3.70;3.37;;;8.20;99.90;;;;;;5087944;28;20767;-66
2023/12/21 16:00:42;;;;;;;3.90;3.27;;;8.30;99.90;;;;;;5106578;28;20202;-67
2023/12/21 16:03:13;;;;;;;4.57;3.30;;;8.20;99.90;;;;;;5108675;28;20242;-66
2023/12/21 16:05:47;;;;;;;2.93;2.73;;;8.30;99.90;;;;;;5092851;28;20231;-67
2023/12/21 16:08:16;;;;;;;3.07;2.73;;;8.20;99.90;;;;;;5108540;28;20565;-66
2023/12/21 16:10:51;;;;;;;2.90;2.70;;;8.20;99.90;;;;;;5091792;28;20222;-67
2023/12/21 16:13:20;;;;;;;3.00;2.80;;;8.30;99.90;;;;;;5087832;28;20258;-66
2023/12/21 16:15:49;;;;;;;3.53;2.90;;;8.30;99.90;;;;;;5098154;28;20203;-67
2023/12/21 16:18:21;;;;;;;3.20;2.97;;;8.20;99.90;;;;;;5108403;28;20198;-67
2023/12/21 16:20:53;;;;;;;3.07;2.77;;;8.20;99.90;;;;;;5108385;28;20229;-65
2023/12/21 16:23:22;;;;;;;3.50;3.20;;;8.20;99.90;;;;;;5108186;28;20193;-65
2023/12/21 16:25:51;;;;;;;2.97;2.70;;;8.30;99.90;;;;;;5107854;28;20202;-66
2023/12/21 16:28:23;;;;;;;3.63;2.60;;;8.40;99.90;;;;;;5109386;28;20200;-66
2023/12/21 16:30:58;;;;;;;2.80;2.60;;;8.30;99.90;;;;;;5112601;28;20203;-66
2023/12/21 16:33:27;;;;;;;3.90;3.50;;;8.30;99.90;;;;;;5112428;28;20690;-66
2023/12/21 16:35:57;;;;;;;3.37;3.07;;;8.20;99.90;;;;;;5112425;28;20203;-66
2023/12/21 16:38:31;;;;;;;3.10;2.80;;;8.20;99.90;;;;;;5112417;28;20200;-67
2023/12/21 16:41:04;;;;;;;4.00;3.10;;;8.30;99.90;;;;;;5111914;28;20213;-66
2023/12/21 16:43:34;;;;;;;3.60;3.30;;;8.20;99.90;;;;;;5111974;28;20259;-68
2023/12/21 16:46:03;;;;;;;3.30;2.97;;;8.10;99.90;;;;;;5112351;28;20255;-69
2023/12/21 16:48:32;;;;;;;4.00;3.50;;;8.20;99.90;;;;;;5112563;28;20563;-66
2023/12/21 16:51:02;;;;;;;6.10;3.50;;;8.20;99.90;;;;;;5112417;28;20202;-68
2023/12/21 16:53:46;;;;;;;4.07;3.40;;;8.20;99.90;;;;;;5112197;28;20201;-67
2023/12/21 16:56:19;;;;;;;3.83;3.33;;;8.20;99.90;;;;;;5111725;28;20203;-66
2023/12/21 16:58:59;;;;;;;5.07;4.30;;;8.20;99.90;;;;;;5111662;28;20219;-67
2023/12/21 17:01:28;;;;;;;4.90;4.20;;;8.20;99.90;;;;;;5112026;28;20218;-66
2023/12/21 17:03:57;;;;;;;5.07;3.63;;;8.30;99.90;;;;;;5112159;28;20639;-67
2023/12/21 17:06:30;;;;;;;6.73;5.23;;;8.20;99.90;;;;;;5111868;28;20227;-66
2023/12/21 17:08:59;;;;;;;7.20;4.70;;;8.30;99.90;;;;;;5111240;28;20210;-65
2023/12/21 17:11:27;;;;;;;9.83;3.77;;;8.30;99.90;;;;;;5112027;28;20285;-66
2023/12/21 17:13:56;;;;;;;5.97;3.47;;;8.20;99.90;;;;;;5111393;28;20195;-66
2023/12/21 17:16:25;;;;;;;6.27;3.20;;;8.10;99.90;;;;;;5110423;28;20564;-68
2023/12/21 17:18:53;;;;;;;5.67;4.20;;;8.10;99.90;;;;;;5111859;28;20192;-68
2023/12/21 17:21:22;;;;;;;8.07;4.03;;;8.10;99.90;;;;;;5111243;28;20234;-66
2023/12/21 17:23:52;;;;;;;7.30;3.70;;;8.00;99.90;;;;;;5111157;28;20188;-67
2023/12/21 17:27:01;;;;;;;6.83;3.60;;;8.10;99.90;;;;;;5111738;28;20192;-66
2023/12/21 17:30:09;;;;;;;4.23;2.93;;;8.10;99.90;;;;;;5111485;28;20275;-67
2023/12/21 17:32:45;;;;;;;7.00;3.30;;;8.10;99.90;;;;;;5111439;28;20582;-67
2023/12/21 17:35:14;;;;;;;4.50;3.13;;;8.00;99.90;;;;;;5110383;28;20297;-66
2023/12/21 17:37:43;;;;;;;8.37;3.40;;;7.90;99.90;;;;;;5110793;28;20293;-66
2023/12/21 17:40:14;;;;;;;8.40;4.10;;;7.90;99.90;;;;;;5111131;28;20190;-67
2023/12/21 17:42:44;;;;;;;7.33;3.90;;;7.90;99.90;;;;;;5111272;28;20709;-66
2023/12/21 17:45:13;;;;;;;7.10;4.17;;;7.90;99.90;;;;;;5111096;28;20204;-66
2023/12/21 17:47:42;;;;;;;15.70;8.07;;;8.00;99.90;;;;;;5111124;28;20225;-66
2023/12/21 17:50:13;;;;;;;11.03;4.90;;;7.90;99.90;;;;;;5111255;27;20265;-67
2023/12/21 17:52:41;;;;;;;13.23;4.67;;;8.00;99.90;;;;;;5107103;28;20678;-68
2023/12/21 17:55:13;;;;;;;9.37;4.30;;;8.00;99.90;;;;;;5111294;28;20220;-66
2023/12/21 17:57:41;;;;;;;9.97;4.40;;;8.00;99.90;;;;;;5111061;28;20906;-67
2023/12/21 18:00:12;;;;;;;13.13;4.40;;;8.00;99.90;;;;;;5111042;27;20193;-67
2023/12/21 18:02:42;;;;;;;6.27;3.97;;;8.00;99.90;;;;;;5110981;28;20221;-65
2023/12/21 18:05:11;;;;;;;11.73;4.63;;;8.00;99.90;;;;;;5111057;28;20646;-64
2023/12/21 18:07:47;;;;;;;16.07;4.97;;;7.90;99.90;;;;;;5110060;28;20230;-66
2023/12/21 18:10:22;;;;;;;12.47;5.20;;;8.00;99.90;;;;;;5109192;28;20199;-65
2023/12/21 18:12:51;;;;;;;14.60;5.23;;;8.00;99.90;;;;;;5109250;28;20202;-64
2023/12/21 18:15:20;;;;;;;13.43;4.53;;;8.00;99.90;;;;;;5108235;28;20205;-65
2023/12/21 18:17:49;;;;;;;13.77;5.10;;;8.00;99.90;;;;;;5110427;28;20195;-65
2023/12/21 18:20:21;;;;;;;16.33;5.67;;;8.00;99.90;;;;;;5110674;28;20720;-65
2023/12/21 18:22:50;;;;;;;16.07;6.27;;;8.10;99.90;;;;;;5110387;28;20237;-65
2023/12/21 18:25:21;;;;;;;23.83;6.03;;;8.10;99.90;;;;;;5110875;28;20202;-65
2023/12/21 18:27:49;;;;;;;15.57;6.63;;;8.10;99.90;;;;;;5110792;28;20259;-64
2023/12/21 18:30:18;;;;;;;15.23;6.00;;;8.00;99.90;;;;;;5110335;28;20731;-63
2023/12/21 18:32:47;;;;;;;17.97;5.87;;;8.00;99.90;;;;;;5110609;28;20195;-64
2023/12/21 18:35:15;;;;;;;19.33;5.93;;;7.90;99.90;;;;;;5110565;28;20205;-65
2023/12/21 18:37:45;;;;;;;12.50;5.63;;;8.00;99.90;;;;;;5109938;27;20221;-64
2023/12/21 18:40:14;;;;;;;55.00;21.13;;;8.00;99.90;;;;;;5110274;28;20219;-65
2023/12/21 18:42:44;;;;;;;21.10;6.27;;;8.00;99.90;;;;;;5110274;28;20621;-65
2023/12/21 18:45:13;;;;;;;18.80;5.60;;;8.00;99.90;;;;;;5096287;28;20199;-64
2023/12/21 18:47:42;;;;;;;15.27;5.20;;;7.90;99.90;;;;;;5093946;28;20195;-66
2023/12/21 18:50:11;;;;;;;15.87;5.47;;;7.90;99.90;;;;;;5106211;28;20246;-66
2023/12/21 18:52:40;;;;;;;15.93;5.00;;;7.90;99.90;;;;;;5097822;28;20236;-65
2023/12/21 18:55:10;;;;;;;18.23;5.80;;;7.90;99.90;;;;;;5089266;28;20196;-67
2023/12/21 18:57:38;;;;;;;22.70;5.53;;;7.90;99.90;;;;;;5088997;28;20241;-66
2023/12/21 19:00:10;;;;;;;14.03;5.30;;;7.90;99.90;;;;;;5088860;28;20195;-65
2023/12/21 19:02:38;;;;;;;14.00;4.83;;;7.90;99.90;;;;;;5089034;28;20227;-65
2023/12/21 19:05:08;;;;;;;17.77;4.80;;;7.90;99.90;;;;;;5089261;28;20221;-65
2023/12/21 19:07:36;;;;;;;21.23;5.73;;;7.80;99.90;;;;;;5091852;28;20271;-66
2023/12/21 19:10:06;;;;;;;13.80;5.17;;;7.80;99.90;;;;;;5105938;28;20202;-66
2023/12/21 19:12:37;;;;;;;16.30;5.43;;;7.80;99.90;;;;;;5107107;28;20185;-64
2023/12/21 19:15:08;;;;;;;17.13;5.67;;;7.80;99.90;;;;;;5109090;28;20202;-65
2023/12/21 19:17:37;;;;;;;16.37;5.57;;;7.80;99.90;;;;;;5109178;28;20201;-66
2023/12/21 19:20:07;;;;;;;20.17;6.07;;;7.80;99.90;;;;;;5108681;28;20207;-65
2023/12/21 19:22:36;;;;;;;26.77;5.73;;;7.80;99.90;;;;;;5108726;28;20324;-64
2023/12/21 19:25:06;;;;;;;21.90;5.87;;;7.80;99.90;;;;;;5109144;28;20657;-64
2023/12/21 19:27:36;;;;;;;14.40;4.77;;;7.80;99.90;;;;;;5109337;28;20228;-65
2023/12/21 19:30:05;;;;;;;15.53;5.57;;;7.80;99.90;;;;;;5108475;28;20777;-65
2023/12/21 19:32:35;;;;;;;19.40;7.97;;;7.70;99.90;;;;;;5108679;28;20194;-65
2023/12/21 19:35:05;;;;;;;13.07;5.33;;;7.60;99.90;;;;;;5107083;28;20256;-65
2023/12/21 19:37:33;;;;;;;20.30;5.90;;;7.60;99.90;;;;;;5108254;28;20198;-64
2023/12/21 19:40:03;;;;;;;19.30;5.23;;;7.60;99.90;;;;;;5108121;28;20703;-64
2023/12/21 19:42:32;;;;;;;15.47;4.57;;;7.50;99.90;;;;;;5108469;28;20252;-64
2023/12/21 19:45:00;;;;;;;13.33;5.90;;;7.40;99.90;;;;;;5100647;28;20573;-64
2023/12/21 19:47:29;;;;;;;13.80;5.67;;;7.40;99.90;;;;;;5100797;28;20209;-64
2023/12/21 19:50:02;;;;;;;13.37;5.40;;;7.40;99.90;;;;;;5108335;28;20251;-65
2023/12/21 19:52:31;;;;;;;20.17;4.77;;;7.30;99.90;;;;;;5108362;28;20197;-65
2023/12/21 19:54:59;;;;;;;16.60;5.00;;;7.30;99.90;;;;;;5108049;28;20199;-65
2023/12/21 19:57:28;;;;;;;13.57;5.13;;;7.40;99.90;;;;;;5108447;28;20211;-64
2023/12/21 19:59:57;;;;;;;31.20;12.80;;;7.40;99.90;;;;;;5108771;28;20621;-65
2023/12/21 20:02:25;;;;;;;19.17;5.33;;;7.40;99.90;;;;;;5108612;28;20193;-64
2023/12/21 20:04:54;;;;;;;17.43;5.67;;;7.30;99.90;;;;;;5108224;28;20268;-65
2023/12/21 20:07:24;;;;;;;25.03;6.40;;;7.20;99.90;;;;;;5107891;28;20236;-65
2023/12/21 20:09:53;;;;;;;18.27;6.63;;;7.30;99.90;;;;;;5108083;28;20197;-65
2023/12/21 20:12:21;;;;;;;18.03;5.80;;;7.20;99.90;;;;;;5108443;28;20193;-66
2023/12/21 20:14:50;;;;;;;16.13;5.73;;;7.20;99.90;;;;;;5095894;28;20200;-66
2023/12/21 20:17:19;;;;;;;14.67;5.60;;;7.10;99.90;;;;;;5106993;28;20987;-65
2023/12/21 20:19:48;;;;;;;17.63;6.23;;;7.10;99.90;;;;;;5108038;28;20204;-65
2023/12/21 20:22:17;;;;;;;21.73;6.93;;;7.10;99.90;;;;;;5108072;28;20201;-65
2023/12/21 20:24:47;;;;;;;15.07;5.93;;;7.20;99.90;;;;;;5108167;28;20232;-65
2023/12/21 20:27:15;;;;;;;20.93;7.47;;;7.10;99.90;;;;;;5108057;28;20221;-65
2023/12/21 20:29:44;;;;;;;17.47;6.23;;;7.20;99.90;;;;;;5107954;28;20936;-65
2023/12/21 20:32:12;;;;;;;23.33;6.67;;;7.30;99.90;;;;;;5107614;28;20201;-66
2023/12/21 20:34:43;;;;;;;18.47;5.50;;;7.20;99.90;;;;;;5107974;28;20192;-66
2023/12/21 20:37:12;;;;;;;23.83;6.00;;;7.30;99.90;;;;;;5107977;28;20662;-65
2023/12/21 20:39:41;;;;;;;19.00;5.90;;;7.30;99.90;;;;;;5107957;28;20252;-64
2023/12/21 20:42:11;;;;;;;15.30;5.60;;;7.20;99.90;;;;;;5108072;28;20204;-65
2023/12/21 20:44:42;;;;;;;25.77;7.33;;;7.10;99.90;;;;;;5107870;28;20224;-65
2023/12/21 20:47:11;;;;;;;19.17;5.93;;;7.20;99.90;;;;;;5105121;28;20206;-66
2023/12/21 20:49:42;;;;;;;22.00;5.90;;;7.20;99.90;;;;;;5106262;28;20193;-64
2023/12/21 20:52:12;;;;;;;24.80;5.83;;;7.10;99.90;;;;;;5095167;28;20222;-66
2023/12/21 20:54:41;;;;;;;24.23;6.47;;;7.20;99.90;;;;;;5088912;28;20198;-65
2023/12/21 20:57:14;;;;;;;17.17;5.33;;;7.30;99.90;;;;;;5096729;28;20226;-65
2023/12/21 20:59:44;;;;;;;25.97;6.10;;;7.10;99.90;;;;;;5099576;28;20204;-64
2023/12/21 21:02:12;;;;;;;19.93;5.67;;;7.10;99.90;;;;;;5106680;28;20748;-65
2023/12/21 21:04:41;;;;;;;16.30;4.97;;;7.10;99.90;;;;;;5107974;28;20231;-64
2023/12/21 21:07:10;;;;;;;19.77;5.67;;;7.10;99.90;;;;;;5107813;28;20229;-65
2023/12/21 21:09:38;;;;;;;29.33;11.30;;;6.90;99.90;;;;;;5107760;28;20198;-65
2023/12/21 21:12:09;;;;;;;18.23;5.80;;;7.00;99.90;;;;;;5107816;28;20279;-64
2023/12/21 21:14:40;;;;;;;25.67;6.53;;;6.90;99.90;;;;;;5109497;28;20303;-65
2023/12/21 21:17:09;;;;;;;22.20;6.43;;;6.80;99.90;;;;;;5096190;28;20214;-66